Terminal Aerodrome Forecast
Issued by NWS

Home | Current Version | Previous Version | Text Only | Print | Product List | Glossary On
Versions: 1 2 3 4 5 6 7 8 9 10 11 12 13 14 15 16 17 18 19 20 21 22 23 24 25 26 27 28 29 30 31 32 33 34 35 36 37 38 39 40 41 42 43 44 45
000
FTUS46 KOTX 311125
TAFPUW
TAF
KPUW 311125Z 3112/0112 20004KT 6SM FU HZ FEW070 BKN150
      TEMPO 3112/3116 3SM FU HZ SCT019 BKN070 BKN150
     FM311600 23012KT P6SM FEW050 SCT080 BKN150
     FM010200 26005KT P6SM BKN100 OVC150
      TEMPO 0102/0105 5SM FU HZ SCT019 BKN100 OVC150
     FM010500 24006KT 3SM FU HZ SCT019 SCT200=

USA.gov is the U.S. government's official web portal to all federal, state and local government web resources and services.